^^
Station Historical Data
Daily Summary for January 4, 2018 Units:  Both    English   Metric
« Previous Day
Next Day »
Daily Weekly Monthly Yearly Custom
  High: Low: Average:
Temperature: 85.3 °F /  29.6 °C 70.7 °F /  21.5 °C 79.6 °F /  26.4 °C
Dew Point: 51.3 °F /  10.7 °C 43.3 °F /  6.3 °C 47 °F /  8.3 °C
Humidity: 47% 24% 33%
Wind Speed: 25.1mph /  40.4km/h - -12.1mph /  -19.5km/h
Wind Gust: 29.0mph /  46.7km/h - -
Wind- -
Pressure: 30.26 in /  1024.6 hPa 29.72 in /  1006.3 hPa -
Precipitation: 0.00 in /  0 mm    
Historical Graphs
 
 
Tabular Data for January 4, 2018
Time Temperature Dew Point Pressure Wind Wind Speed Wind Gust Humidity Rainfall Rate (Hourly) solar Conditions
09:07 70.7 °F /  21.5 °C 49.5 °F /  9.7 °C 30.26in /  1024.6hPa North -999.9mph /  -1609.1km/h -999.0mph /  -1607.7km/h 47% 0.00in /  0mm meteobridge W/m2
09:15 71.1 °F /  21.7 °C 49.8 °F /  9.9 °C 30.26in /  1024.6hPa ENE 8.9mph /  14.3km/h 19.0mph /  30.6km/h 47% 0.00in /  0mm meteobridge W/m2
09:17 71.2 °F /  21.8 °C 50.0 °F /  10 °C 30.26in /  1024.6hPa ENE 10.1mph /  16.3km/h 20.0mph /  32.2km/h 47% 0.00in /  0mm meteobridge W/m2
09:21 72.0 °F /  22.2 °C 50.0 °F /  10 °C 30.26in /  1024.6hPa NE 10.1mph /  16.3km/h 13.0mph /  20.9km/h 46% 0.00in /  0mm meteobridge W/m2
09:25 73.0 °F /  22.8 °C 50.4 °F /  10.2 °C 30.26in /  1024.6hPa NE 6.0mph /  9.7km/h 12.0mph /  19.3km/h 45% 0.00in /  0mm meteobridge W/m2
09:29 73.8 °F /  23.2 °C 50.5 °F /  10.3 °C 30.26in /  1024.6hPa NE 4.9mph /  7.9km/h 15.0mph /  24.1km/h 44% 0.00in /  0mm meteobridge W/m2
09:35 73.6 °F /  23.1 °C 50.4 °F /  10.2 °C 30.26in /  1024.6hPa NE 11.0mph /  17.7km/h 17.0mph /  27.4km/h 44% 0.00in /  0mm meteobridge W/m2
09:38 73.8 °F /  23.2 °C 50.5 °F /  10.3 °C 30.26in /  1024.6hPa NNE 17.9mph /  28.8km/h 23.0mph /  37km/h 44% 0.00in /  0mm meteobridge W/m2
09:44 73.9 °F /  23.3 °C 50.7 °F /  10.4 °C 30.25in /  1024.3hPa North 13.0mph /  20.9km/h 19.0mph /  30.6km/h 44% 0.00in /  0mm meteobridge W/m2
09:48 73.9 °F /  23.3 °C 50.0 °F /  10 °C 30.26in /  1024.6hPa NE 17.0mph /  27.4km/h 21.0mph /  33.8km/h 43% 0.00in /  0mm meteobridge W/m2
09:54 73.9 °F /  23.3 °C 50.7 °F /  10.4 °C 30.26in /  1024.6hPa NE 8.9mph /  14.3km/h 21.0mph /  33.8km/h 44% 0.00in /  0mm meteobridge W/m2
10:00 74.7 °F /  23.7 °C 50.7 °F /  10.4 °C 30.26in /  1024.6hPa NNE 17.9mph /  28.8km/h 19.0mph /  30.6km/h 43% 0.00in /  0mm meteobridge W/m2
10:02 74.7 °F /  23.7 °C 50.7 °F /  10.4 °C 30.26in /  1024.6hPa North 19.0mph /  30.6km/h 23.0mph /  37km/h 43% 0.00in /  0mm meteobridge W/m2
10:08 74.8 °F /  23.8 °C 50.9 °F /  10.5 °C 30.26in /  1024.6hPa ENE 8.9mph /  14.3km/h 19.0mph /  30.6km/h 43% 0.00in /  0mm meteobridge W/m2
10:14 75.9 °F /  24.4 °C 50.5 °F /  10.3 °C 30.25in /  1024.3hPa NNE 17.0mph /  27.4km/h 21.0mph /  33.8km/h 41% 0.00in /  0mm meteobridge W/m2
10:20 76.5 °F /  24.7 °C 50.4 °F /  10.2 °C 30.26in /  1024.6hPa NE 13.0mph /  20.9km/h 16.0mph /  25.7km/h 40% 0.00in /  0mm meteobridge W/m2
10:26 77.4 °F /  25.2 °C 51.1 °F /  10.6 °C 30.25in /  1024.3hPa NE 6.9mph /  11.1km/h 13.0mph /  20.9km/h 40% 0.00in /  0mm meteobridge W/m2
10:32 77.7 °F /  25.4 °C 50.7 °F /  10.4 °C 30.26in /  1024.6hPa NE 10.1mph /  16.3km/h 14.0mph /  22.5km/h 39% 0.00in /  0mm meteobridge W/m2
10:38 78.3 °F /  25.7 °C 51.3 °F /  10.7 °C 30.25in /  1024.3hPa East 2.0mph /  3.2km/h 12.0mph /  19.3km/h 39% 0.00in /  0mm meteobridge W/m2
10:44 78.4 °F /  25.8 °C 50.7 °F /  10.4 °C 30.26in /  1024.6hPa NE 14.1mph /  22.7km/h 16.0mph /  25.7km/h 38% 0.00in /  0mm meteobridge W/m2
10:52 78.1 °F /  25.6 °C 49.6 °F /  9.8 °C 30.26in /  1024.6hPa NNW 14.1mph /  22.7km/h 24.0mph /  38.6km/h 37% 0.00in /  0mm meteobridge W/m2
10:54 77.5 °F /  25.3 °C 50.0 °F /  10 °C 29.72in /  1006.3hPa NNE 15.0mph /  24.1km/h 20.0mph /  32.2km/h 38% 0.00in /  0mm meteobridge W/m2
11:00 76.6 °F /  24.8 °C 49.1 °F /  9.5 °C 30.26in /  1024.6hPa NNE 8.9mph /  14.3km/h 21.0mph /  33.8km/h 38% 0.00in /  0mm meteobridge W/m2
11:06 77.4 °F /  25.2 °C 48.4 °F /  9.1 °C 30.26in /  1024.6hPa NE 6.0mph /  9.7km/h 22.0mph /  35.4km/h 36% 0.00in /  0mm meteobridge W/m2
11:13 77.2 °F /  25.1 °C 48.2 °F /  9 °C 30.26in /  1024.6hPa WNW 2.9mph /  4.7km/h 13.0mph /  20.9km/h 36% 0.00in /  0mm meteobridge W/m2
11:19 78.3 °F /  25.7 °C 48.4 °F /  9.1 °C 30.26in /  1024.6hPa North 11.0mph /  17.7km/h 19.0mph /  30.6km/h 35% 0.00in /  0mm meteobridge W/m2
11:25 78.6 °F /  25.9 °C 48.7 °F /  9.3 °C 30.26in /  1024.6hPa NNW 17.0mph /  27.4km/h 18.0mph /  29km/h 35% 0.00in /  0mm meteobridge W/m2
11:31 79.0 °F /  26.1 °C 44.1 °F /  6.7 °C 30.26in /  1024.6hPa NNE 6.9mph /  11.1km/h 17.0mph /  27.4km/h 29% 0.00in /  0mm meteobridge W/m2
11:37 79.9 °F /  26.6 °C 48.9 °F /  9.4 °C 30.25in /  1024.3hPa NNE 16.1mph /  25.9km/h 22.0mph /  35.4km/h 34% 0.00in /  0mm meteobridge W/m2
11:43 79.2 °F /  26.2 °C 46.8 °F /  8.2 °C 30.26in /  1024.6hPa NNE 12.1mph /  19.5km/h 18.0mph /  29km/h 32% 0.00in /  0mm meteobridge W/m2
11:49 79.0 °F /  26.1 °C 46.6 °F /  8.1 °C 30.25in /  1024.3hPa NNE 10.1mph /  16.3km/h 15.0mph /  24.1km/h 32% 0.00in /  0mm meteobridge W/m2
11:53 79.2 °F /  26.2 °C 45.9 °F /  7.7 °C 30.25in /  1024.3hPa NE 13.0mph /  20.9km/h 24.0mph /  38.6km/h 31% 0.00in /  0mm meteobridge W/m2
11:59 80.1 °F /  26.7 °C 45.9 °F /  7.7 °C 30.25in /  1024.3hPa ENE 8.1mph /  13km/h 16.0mph /  25.7km/h 30% 0.00in /  0mm meteobridge W/m2
12:01 80.4 °F /  26.9 °C 45.3 °F /  7.4 °C 30.25in /  1024.3hPa ESE 6.0mph /  9.7km/h 12.0mph /  19.3km/h 29% 0.00in /  0mm meteobridge W/m2
12:07 81.3 °F /  27.4 °C 45.1 °F /  7.3 °C 30.25in /  1024.3hPa NE 6.9mph /  11.1km/h 11.0mph /  17.7km/h 28% 0.00in /  0mm meteobridge W/m2
12:13 81.9 °F /  27.7 °C 46.4 °F /  8 °C 30.25in /  1024.3hPa North 16.1mph /  25.9km/h 18.0mph /  29km/h 29% 0.00in /  0mm meteobridge W/m2
12:19 81.9 °F /  27.7 °C 45.5 °F /  7.5 °C 30.25in /  1024.3hPa North 14.1mph /  22.7km/h 16.0mph /  25.7km/h 28% 0.00in /  0mm meteobridge W/m2
12:25 80.8 °F /  27.1 °C 45.5 °F /  7.5 °C 30.25in /  1024.3hPa ENE 6.9mph /  11.1km/h 9.0mph /  14.5km/h 29% 0.00in /  0mm meteobridge W/m2
12:32 81.9 °F /  27.7 °C 47.3 °F /  8.5 °C 30.24in /  1023.9hPa NE 0.9mph /  1.4km/h 5.0mph /  8km/h 30% 0.00in /  0mm meteobridge W/m2
12:38 81.1 °F /  27.3 °C 46.8 °F /  8.2 °C 30.24in /  1023.9hPa NNE 4.0mph /  6.4km/h 16.0mph /  25.7km/h 30% 0.00in /  0mm meteobridge W/m2
12:44 81.0 °F /  27.2 °C 46.6 °F /  8.1 °C 30.24in /  1023.9hPa NE 6.9mph /  11.1km/h 18.0mph /  29km/h 30% 0.00in /  0mm meteobridge W/m2
12:50 80.2 °F /  26.8 °C 46.9 °F /  8.3 °C 30.23in /  1023.6hPa North 6.9mph /  11.1km/h 16.0mph /  25.7km/h 31% 0.00in /  0mm meteobridge W/m2
12:56 81.0 °F /  27.2 °C 47.5 °F /  8.6 °C 30.23in /  1023.6hPa NNE 6.9mph /  11.1km/h 17.0mph /  27.4km/h 31% 0.00in /  0mm meteobridge W/m2
13:02 82.4 °F /  28 °C 46.0 °F /  7.8 °C 30.23in /  1023.6hPa ENE 6.0mph /  9.7km/h 21.0mph /  33.8km/h 28% 0.00in /  0mm meteobridge W/m2
13:06 82.4 °F /  28 °C 45.1 °F /  7.3 °C 30.24in /  1023.9hPa NNE 13.0mph /  20.9km/h 19.0mph /  30.6km/h 27% 0.00in /  0mm meteobridge W/m2
13:12 80.6 °F /  27 °C 44.4 °F /  6.9 °C 30.24in /  1023.9hPa WNW 11.0mph /  17.7km/h 20.0mph /  32.2km/h 28% 0.00in /  0mm meteobridge W/m2
13:18 82.0 °F /  27.8 °C 45.7 °F /  7.6 °C 30.24in /  1023.9hPa NNW 4.0mph /  6.4km/h 13.0mph /  20.9km/h 28% 0.00in /  0mm meteobridge W/m2
13:22 81.9 °F /  27.7 °C 45.5 °F /  7.5 °C 30.23in /  1023.6hPa NE 4.0mph /  6.4km/h 13.0mph /  20.9km/h 28% 0.00in /  0mm meteobridge W/m2
13:28 81.1 °F /  27.3 °C 45.9 °F /  7.7 °C 30.23in /  1023.6hPa ENE 8.1mph /  13km/h 12.0mph /  19.3km/h 29% 0.00in /  0mm meteobridge W/m2
13:35 81.0 °F /  27.2 °C 45.7 °F /  7.6 °C 30.23in /  1023.6hPa NE 6.0mph /  9.7km/h 15.0mph /  24.1km/h 29% 0.00in /  0mm meteobridge W/m2
13:43 79.2 °F /  26.2 °C 44.2 °F /  6.8 °C 30.22in /  1023.2hPa NE 10.1mph /  16.3km/h 18.0mph /  29km/h 29% 0.00in /  0mm meteobridge W/m2
13:49 80.8 °F /  27.1 °C 44.6 °F /  7 °C 30.22in /  1023.2hPa NE 6.0mph /  9.7km/h 13.0mph /  20.9km/h 28% 0.00in /  0mm meteobridge W/m2
13:55 83.5 °F /  28.6 °C 45.0 °F /  7.2 °C 30.21in /  1022.9hPa NNE 6.0mph /  9.7km/h 10.0mph /  16.1km/h 26% 0.00in /  0mm meteobridge W/m2
14:01 83.7 °F /  28.7 °C 45.1 °F /  7.3 °C 30.21in /  1022.9hPa NNE 2.9mph /  4.7km/h 7.0mph /  11.3km/h 26% 0.00in /  0mm meteobridge W/m2
14:09 83.1 °F /  28.4 °C 44.6 °F /  7 °C 30.20in /  1022.6hPa NE 2.0mph /  3.2km/h 6.0mph /  9.7km/h 26% 0.00in /  0mm meteobridge W/m2
14:15 82.4 °F /  28 °C 44.1 °F /  6.7 °C 30.20in /  1022.6hPa NNE 4.9mph /  7.9km/h 15.0mph /  24.1km/h 26% 0.00in /  0mm meteobridge W/m2
14:21 82.9 °F /  28.3 °C 44.6 °F /  7 °C 30.19in /  1022.2hPa NNE 15.0mph /  24.1km/h 15.0mph /  24.1km/h 26% 0.00in /  0mm meteobridge W/m2
14:34 84.7 °F /  29.3 °C 45.0 °F /  7.2 °C 30.19in /  1022.2hPa NNE 6.0mph /  9.7km/h 11.0mph /  17.7km/h 25% 0.00in /  0mm meteobridge W/m2
14:40 84.9 °F /  29.4 °C 45.1 °F /  7.3 °C 30.19in /  1022.2hPa NNE 12.1mph /  19.5km/h 16.0mph /  25.7km/h 25% 0.00in /  0mm meteobridge W/m2
14:46 82.9 °F /  28.3 °C 44.6 °F /  7 °C 30.19in /  1022.2hPa NE 4.0mph /  6.4km/h 13.0mph /  20.9km/h 26% 0.00in /  0mm meteobridge W/m2
14:54 84.6 °F /  29.2 °C 45.0 °F /  7.2 °C 30.19in /  1022.2hPa NNE 4.0mph /  6.4km/h 12.0mph /  19.3km/h 25% 0.00in /  0mm meteobridge W/m2
14:56 85.3 °F /  29.6 °C 45.5 °F /  7.5 °C 30.19in /  1022.2hPa NE 4.0mph /  6.4km/h 14.0mph /  22.5km/h 25% 0.00in /  0mm meteobridge W/m2
15:02 84.9 °F /  29.4 °C 44.1 °F /  6.7 °C 30.18in /  1021.9hPa NE 4.0mph /  6.4km/h 6.0mph /  9.7km/h 24% 0.00in /  0mm meteobridge W/m2
15:08 84.0 °F /  28.9 °C 44.4 °F /  6.9 °C 30.18in /  1021.9hPa Calm   3.0mph /  4.8km/h 25% 0.00in /  0mm meteobridge W/m2
15:14 83.1 °F /  28.4 °C 44.6 °F /  7 °C 30.18in /  1021.9hPa SE 2.0mph /  3.2km/h 5.0mph /  8km/h 26% 0.00in /  0mm meteobridge W/m2
15:16 83.1 °F /  28.4 °C 43.7 °F /  6.5 °C 30.18in /  1021.9hPa NE 2.0mph /  3.2km/h 5.0mph /  8km/h 25% 0.00in /  0mm meteobridge W/m2
15:22 82.8 °F /  28.2 °C 43.3 °F /  6.3 °C 30.18in /  1021.9hPa North 4.9mph /  7.9km/h 7.0mph /  11.3km/h 25% 0.00in /  0mm meteobridge W/m2
15:29 83.8 °F /  28.8 °C 44.2 °F /  6.8 °C 30.17in /  1021.6hPa NNW 14.1mph /  22.7km/h 14.1mph /  22.7km/h 25% 0.00in /  0mm meteobridge W/m2
15:37 84.7 °F /  29.3 °C 45.0 °F /  7.2 °C 30.17in /  1021.6hPa NNE 6.9mph /  11.1km/h 18.0mph /  29km/h 25% 0.00in /  0mm meteobridge W/m2
15:43 84.0 °F /  28.9 °C 44.4 °F /  6.9 °C 30.17in /  1021.6hPa NNE 2.9mph /  4.7km/h 12.0mph /  19.3km/h 25% 0.00in /  0mm meteobridge W/m2
15:45 83.8 °F /  28.8 °C 44.2 °F /  6.8 °C 30.17in /  1021.6hPa North 6.0mph /  9.7km/h 9.0mph /  14.5km/h 25% 0.00in /  0mm meteobridge W/m2
15:53 81.9 °F /  27.7 °C 43.7 °F /  6.5 °C 30.17in /  1021.6hPa NE 0.9mph /  1.4km/h 4.0mph /  6.4km/h 26% 0.00in /  0mm meteobridge W/m2
15:59 81.5 °F /  27.5 °C 43.3 °F /  6.3 °C 30.17in /  1021.6hPa SSW 0.9mph /  1.4km/h 5.0mph /  8km/h 26% 0.00in /  0mm meteobridge W/m2
16:06 82.2 °F /  27.9 °C 43.9 °F /  6.6 °C 30.16in /  1021.2hPa SW 0.9mph /  1.4km/h 1.0mph /  1.6km/h 26% 0.00in /  0mm meteobridge W/m2
16:08 83.1 °F /  28.4 °C 43.7 °F /  6.5 °C 30.16in /  1021.2hPa NW 0.9mph /  1.4km/h 7.0mph /  11.3km/h 25% 0.00in /  0mm meteobridge W/m2
16:14 85.3 °F /  29.6 °C 44.4 °F /  6.9 °C 30.16in /  1021.2hPa NNE 13.0mph /  20.9km/h 14.0mph /  22.5km/h 24% 0.00in /  0mm meteobridge W/m2
16:26 83.1 °F /  28.4 °C 44.6 °F /  7 °C 30.16in /  1021.2hPa NNE 4.0mph /  6.4km/h 10.0mph /  16.1km/h 26% 0.00in /  0mm meteobridge W/m2
16:32 82.2 °F /  27.9 °C 45.0 °F /  7.2 °C 30.16in /  1021.2hPa NNE 15.0mph /  24.1km/h 16.0mph /  25.7km/h 27% 0.00in /  0mm meteobridge W/m2
16:36 81.9 °F /  27.7 °C 44.6 °F /  7 °C 30.16in /  1021.2hPa North 8.1mph /  13km/h 10.0mph /  16.1km/h 27% 0.00in /  0mm meteobridge W/m2
16:38 81.7 °F /  27.6 °C 44.4 °F /  6.9 °C 30.16in /  1021.2hPa North 4.9mph /  7.9km/h 11.0mph /  17.7km/h 27% 0.00in /  0mm meteobridge W/m2
16:46 81.9 °F /  27.7 °C 44.6 °F /  7 °C 30.15in /  1020.9hPa North 4.9mph /  7.9km/h 8.0mph /  12.9km/h 27% 0.00in /  0mm meteobridge W/m2
16:48 81.9 °F /  27.7 °C 44.6 °F /  7 °C 30.15in /  1020.9hPa NNW 0.9mph /  1.4km/h 7.0mph /  11.3km/h 27% 0.00in /  0mm meteobridge W/m2
16:56 83.3 °F /  28.5 °C 46.8 °F /  8.2 °C 30.15in /  1020.9hPa NE 11.0mph /  17.7km/h 19.0mph /  30.6km/h 28% 0.00in /  0mm meteobridge W/m2
17:02 82.0 °F /  27.8 °C 49.3 °F /  9.6 °C 30.15in /  1020.9hPa NNE 25.1mph /  40.4km/h 29.0mph /  46.7km/h 32% 0.00in /  0mm meteobridge W/m2
17:13 78.6 °F /  25.9 °C 48.7 °F /  9.3 °C 30.16in /  1021.2hPa NNE 13.0mph /  20.9km/h 22.0mph /  35.4km/h 35% 0.00in /  0mm meteobridge W/m2
17:23 79.5 °F /  26.4 °C 48.7 °F /  9.3 °C 30.16in /  1021.2hPa North 14.1mph /  22.7km/h 21.0mph /  33.8km/h 34% 0.00in /  0mm meteobridge W/m2
17:31 79.3 °F /  26.3 °C 48.6 °F /  9.2 °C 30.16in /  1021.2hPa North 6.9mph /  11.1km/h 19.0mph /  30.6km/h 34% 0.00in /  0mm meteobridge W/m2
17:37 79.5 °F /  26.4 °C 48.7 °F /  9.3 °C 30.16in /  1021.2hPa NNE 11.0mph /  17.7km/h 12.0mph /  19.3km/h 34% 0.00in /  0mm meteobridge W/m2
17:45 78.4 °F /  25.8 °C 47.7 °F /  8.7 °C 30.16in /  1021.2hPa NNE 16.1mph /  25.9km/h 19.0mph /  30.6km/h 34% 0.00in /  0mm meteobridge W/m2
17:52 77.7 °F /  25.4 °C 46.4 °F /  8 °C 30.16in /  1021.2hPa North 21.0mph /  33.8km/h 25.0mph /  40.2km/h 33% 0.00in /  0mm meteobridge W/m2
18:00 76.3 °F /  24.6 °C 48.0 °F /  8.9 °C 30.17in /  1021.6hPa NNE 17.0mph /  27.4km/h 20.0mph /  32.2km/h 37% 0.00in /  0mm meteobridge W/m2
18:08 75.7 °F /  24.3 °C 48.4 °F /  9.1 °C 30.17in /  1021.6hPa NNE 12.1mph /  19.5km/h 18.0mph /  29km/h 38% 0.00in /  0mm meteobridge W/m2
18:14 75.6 °F /  24.2 °C 48.2 °F /  9 °C 30.18in /  1021.9hPa NNE 6.0mph /  9.7km/h 11.0mph /  17.7km/h 38% 0.00in /  0mm meteobridge W/m2
18:20 75.6 °F /  24.2 °C 48.9 °F /  9.4 °C 30.19in /  1022.2hPa NE 4.9mph /  7.9km/h 7.0mph /  11.3km/h 39% 0.00in /  0mm meteobridge W/m2
18:26 75.6 °F /  24.2 °C 48.9 °F /  9.4 °C 30.19in /  1022.2hPa NE 6.0mph /  9.7km/h 6.0mph /  9.7km/h 39% 0.00in /  0mm meteobridge W/m2
18:33 75.6 °F /  24.2 °C 48.9 °F /  9.4 °C 30.20in /  1022.6hPa NE 6.0mph /  9.7km/h -999.0mph /  -1607.7km/h 39% 0.00in /  0mm meteobridge W/m2
18:39 75.6 °F /  24.2 °C 48.9 °F /  9.4 °C 30.20in /  1022.6hPa North -999.9mph /  -1609.1km/h -999.0mph /  -1607.7km/h 39% 0.00in /  0mm meteobridge W/m2
Regenstein, Windhoek, Namibia
Compliments of Weather Underground - 2.5 mb